Time;durP1;ratioP1;P1;durP2;ratioP2;P2;SDS_P1;SDS_P2;PMS_P1;PMS_P2;Temp;Humidity;BMP_temperature;BMP_pressure;BME280_temperature;BME280_humidity;BME280_pressure;Samples;Min_cycle;Max_cycle;Signal;HPM_P1;HPM_P2
2022/12/14 00:00:30;;;;;;;10.83;4.50;;;;;;;18.88;46.84;98958.72;5067462;28;20270;-63
2022/12/14 00:02:56;;;;;;;10.23;4.60;;;;;;;18.79;46.88;98957.53;5072703;28;20425;-63
2022/12/14 00:05:22;;;;;;;8.83;3.90;;;;;;;18.82;47.10;98957.50;5070606;28;20265;-63
2022/12/14 00:07:48;;;;;;;8.47;4.67;;;;;;;18.82;47.43;98968.13;5054913;28;20180;-63
2022/12/14 00:10:13;;;;;;;8.33;4.50;;;;;;;18.85;47.39;98962.41;5067052;28;20918;-63
2022/12/14 00:12:39;;;;;;;13.30;5.27;;;;;;;18.75;47.19;98951.81;5058433;28;20209;-64
2022/12/14 00:15:05;;;;;;;8.13;4.60;;;;;;;18.76;47.19;98950.59;5059104;28;20226;-63
2022/12/14 00:17:30;;;;;;;6.97;3.83;;;;;;;18.59;47.56;98945.78;5053343;28;20489;-64
2022/12/14 00:19:56;;;;;;;9.30;4.80;;;;;;;18.56;47.63;98940.88;5054435;28;20437;-64
2022/12/14 00:22:21;;;;;;;7.70;4.23;;;;;;;18.57;47.48;98933.91;5069780;28;20194;-64
2022/12/14 00:24:46;;;;;;;8.20;4.10;;;;;;;18.62;47.61;98936.34;5073344;28;20179;-63
2022/12/14 00:27:12;;;;;;;10.83;4.67;;;;;;;18.59;47.79;98942.91;5072975;28;20186;-64
2022/12/14 00:29:38;;;;;;;8.50;4.50;;;;;;;18.59;47.86;98951.47;5079114;28;20226;-63
2022/12/14 00:32:04;;;;;;;10.20;4.70;;;;;;;18.55;48.10;98944.97;5066556;28;20187;-64
2022/12/14 00:34:30;;;;;;;8.53;4.37;;;;;;;18.57;48.17;98945.34;5074178;28;20207;-64
2022/12/14 00:36:55;;;;;;;9.97;4.17;;;;;;;18.50;48.35;98956.81;5073208;28;20416;-64
2022/12/14 00:39:21;;;;;;;12.17;4.30;;;;;;;18.48;48.48;98944.16;5071210;28;20654;-63
2022/12/14 00:41:46;;;;;;;7.80;4.50;;;;;;;18.47;48.54;98939.69;5067288;28;20198;-64
2022/12/14 00:44:12;;;;;;;9.23;4.73;;;;;;;18.55;48.19;98929.84;5073463;28;20171;-64
2022/12/14 00:46:37;;;;;;;9.27;4.53;;;;;;;18.52;48.58;98937.19;5072489;28;20179;-64
2022/12/14 00:49:03;;;;;;;7.47;3.60;;;;;;;18.51;48.24;98929.88;5070948;28;20184;-64
2022/12/14 00:51:28;;;;;;;8.07;4.40;;;;;;;18.49;48.42;98928.66;5074181;28;20626;-63
2022/12/14 00:53:54;;;;;;;9.80;4.37;;;;;;;18.49;48.60;98929.47;5073660;28;20542;-64
2022/12/14 00:56:19;;;;;;;11.57;4.83;;;;;;;18.53;48.33;98926.59;5073853;28;20566;-64
2022/12/14 00:58:51;;;;;;;6.60;4.07;;;;;;;18.51;48.34;98924.16;5063742;28;20572;-64
2022/12/14 01:01:16;;;;;;;5.90;3.77;;;;;;;18.50;48.49;98916.81;5052524;28;20184;-64
2022/12/14 01:03:42;;;;;;;7.13;4.10;;;;;;;18.45;48.49;98924.97;5061310;28;20413;-64
2022/12/14 01:06:18;;;;;;;7.63;4.10;;;;;;;18.41;48.53;98933.56;5073636;28;20549;-64
2022/12/14 01:08:44;;;;;;;10.93;4.10;;;;;;;18.47;48.58;98937.63;5069909;28;20183;-63
2022/12/14 01:11:09;;;;;;;5.73;3.90;;;;;;;18.47;48.48;98934.78;5072864;28;20433;-64
2022/12/14 01:13:35;;;;;;;8.63;4.00;;;;;;;18.39;48.94;98930.31;5062332;28;20195;-64
2022/12/14 01:16:07;;;;;;;7.77;3.27;;;;;;;18.43;48.40;98921.72;5052260;28;20208;-63
2022/12/14 01:18:34;;;;;;;8.10;4.73;;;;;;;18.44;48.49;98924.19;5057888;28;20274;-63
2022/12/14 01:21:10;;;;;;;5.83;3.60;;;;;;;18.40;48.49;98920.53;5054825;28;20398;-64
2022/12/14 01:23:36;;;;;;;7.77;4.10;;;;;;;18.40;48.63;98923.38;5072133;28;20792;-64
2022/12/14 01:26:02;;;;;;;6.40;3.70;;;;;;;18.39;48.56;98920.94;5072321;28;20413;-64
2022/12/14 01:28:27;;;;;;;8.90;3.97;;;;;;;18.39;48.56;98923.78;5069689;28;20183;-63
2022/12/14 01:30:53;;;;;;;8.90;3.73;;;;;;;18.41;48.45;98907.84;5072286;28;20165;-63
2022/12/14 01:33:18;;;;;;;8.90;3.93;;;;;;;18.40;48.35;98899.69;5065662;28;20643;-63
2022/12/14 01:35:43;;;;;;;6.90;3.63;;;;;;;18.43;48.67;98893.16;5052950;28;20250;-64
2022/12/14 01:38:09;;;;;;;6.93;3.83;;;;;;;18.43;48.37;98901.72;5054152;28;20199;-63
2022/12/14 01:40:34;;;;;;;6.47;4.00;;;;;;;18.41;48.70;98915.63;5053213;28;20204;-64
2022/12/14 01:43:00;;;;;;;10.57;4.00;;;;;;;18.38;48.78;98931.56;5051449;28;20512;-63
2022/12/14 01:45:26;;;;;;;5.53;3.50;;;;;;;18.41;48.38;98919.28;5051786;28;20167;-64
2022/12/14 01:47:56;;;;;;;6.70;3.50;;;;;;;18.42;48.34;98918.06;5054012;28;20182;-64
2022/12/14 01:50:29;;;;;;;5.80;3.97;;;;;;;18.38;48.76;98907.88;5051705;28;20176;-64
2022/12/14 01:52:57;;;;;;;6.27;4.20;;;;;;;18.35;48.79;98903.81;5036779;28;20904;-63
2022/12/14 01:55:25;;;;;;;6.27;3.57;;;;;;;18.38;48.62;98920.13;5072239;28;20449;-63
2022/12/14 01:57:55;;;;;;;8.93;3.90;;;;;;;18.40;48.82;98902.56;5061727;28;20979;-64
2022/12/14 02:00:36;;;;;;;8.87;3.63;;;;;;;18.36;48.55;98887.50;5052578;28;20474;-64
2022/12/14 02:03:05;;;;;;;5.90;4.00;;;;;;;18.33;48.56;98883.41;5057258;28;20494;-64
2022/12/14 02:05:32;;;;;;;6.23;3.80;;;;;;;18.36;48.66;98893.19;5072515;28;20574;-63
2022/12/14 02:07:57;;;;;;;11.73;4.20;;;;;;;18.30;49.01;98889.91;5072156;28;20413;-63
2022/12/14 02:10:24;;;;;;;6.80;3.77;;;;;;;18.27;48.84;98907.88;5053789;28;20448;-63
2022/12/14 02:12:53;;;;;;;7.00;4.23;;;;;;;18.32;48.87;98906.66;5053723;28;20258;-63
2022/12/14 02:15:18;;;;;;;7.27;3.80;;;;;;;18.30;48.74;98907.06;5035478;28;21199;-63
2022/12/14 02:17:44;;;;;;;10.37;4.00;;;;;;;18.31;48.63;98902.97;5053682;28;20430;-64
2022/12/14 02:20:11;;;;;;;7.50;3.70;;;;;;;18.28;48.61;98889.53;5017112;28;20176;-63
2022/12/14 02:23:20;;;;;;;5.50;2.90;;;;;;;18.31;48.62;98888.69;5059955;28;20839;-64
2022/12/14 02:25:55;;;;;;;7.37;3.70;;;;;;;18.35;48.48;98886.66;5069574;28;20433;-63
2022/12/14 02:28:38;;;;;;;6.00;3.80;;;;;;;18.27;48.34;98876.44;5053608;28;20448;-64
2022/12/14 02:31:36;;;;;;;6.00;3.53;;;;;;;18.28;48.82;98875.25;5072259;28;20429;-63
2022/12/14 02:34:30;;;;;;;5.87;3.50;;;;;;;18.27;48.63;98862.16;5050936;28;20465;-64
2022/12/14 02:37:04;;;;;;;6.00;3.23;;;;;;;18.28;48.87;98869.53;5059108;28;21028;-63
2022/12/14 02:39:37;;;;;;;5.50;3.60;;;;;;;18.25;48.59;98870.34;5038089;28;20764;-64
2022/12/14 02:42:06;;;;;;;5.93;3.30;;;;;;;18.30;48.54;98875.63;5053961;28;20413;-64
2022/12/14 02:44:33;;;;;;;6.63;3.07;;;;;;;18.25;48.96;98875.22;5049271;28;20463;-63
2022/12/14 02:47:10;;;;;;;6.23;3.60;;;;;;;18.22;48.90;98874.00;5033743;28;20414;-63
2022/12/14 02:49:41;;;;;;;6.73;3.20;;;;;;;18.24;48.62;98873.59;5052765;28;20461;-64
2022/12/14 02:52:12;;;;;;;5.03;3.10;;;;;;;18.26;48.72;98866.25;5069397;28;20940;-64
2022/12/14 02:54:57;;;;;;;4.80;3.37;;;;;;;18.24;48.85;98863.00;5051375;28;20492;-64
2022/12/14 02:57:31;;;;;;;4.93;2.90;;;;;;;18.23;48.98;98867.09;5056289;28;20417;-63
2022/12/14 02:59:58;;;;;;;5.30;3.23;;;;;;;18.23;48.55;98869.94;5039380;28;20501;-63
2022/12/14 03:02:23;;;;;;;4.93;3.07;;;;;;;18.26;48.64;98862.59;5015069;28;20442;-63
2022/12/14 03:04:49;;;;;;;5.90;3.70;;;;;;;18.22;48.81;98862.59;5033565;28;20452;-64
2022/12/14 03:07:33;;;;;;;5.53;3.47;;;;;;;18.29;48.76;98868.28;5044902;28;20627;-63
2022/12/14 03:10:43;;;;;;;4.40;2.60;;;;;;;18.21;48.87;98868.75;5031545;28;20164;-63
2022/12/14 03:13:08;;;;;;;6.23;3.80;;;;;;;18.22;48.93;98865.44;5003702;28;20443;-63
2022/12/14 03:15:33;;;;;;;6.53;3.60;;;;;;;18.24;48.66;98854.44;5031518;28;20517;-64
2022/12/14 03:17:59;;;;;;;5.83;3.40;;;;;;;18.23;48.51;98852.81;5031699;28;20230;-63
2022/12/14 03:20:25;;;;;;;5.33;2.80;;;;;;;18.22;48.71;98854.00;5012927;28;20184;-64
2022/12/14 03:23:09;;;;;;;7.27;3.50;;;;;;;18.24;48.71;98843.00;5034335;28;20199;-64
2022/12/14 03:25:41;;;;;;;5.17;3.20;;;;;;;18.19;48.90;98842.63;5043046;28;20172;-64
2022/12/14 03:28:16;;;;;;;4.23;2.70;;;;;;;18.20;48.93;98845.06;5014859;28;20954;-63
2022/12/14 03:30:42;;;;;;;6.07;3.33;;;;;;;18.20;48.45;98838.53;5016646;28;20430;-64
2022/12/14 03:33:14;;;;;;;6.17;3.10;;;;;;;18.21;48.98;98825.88;5033415;28;20402;-63
2022/12/14 03:35:46;;;;;;;4.80;3.43;;;;;;;18.21;48.93;98818.13;5051719;28;20719;-64
2022/12/14 03:38:18;;;;;;;7.57;3.40;;;;;;;18.18;48.64;98818.13;5035655;28;20908;-64
2022/12/14 03:41:17;;;;;;;5.63;2.90;;;;;;;18.20;48.80;98813.63;5014010;28;20769;-64
2022/12/14 03:44:03;;;;;;;5.37;3.13;;;;;;;18.16;48.92;98806.31;5033804;28;20435;-63
2022/12/14 03:46:55;;;;;;;5.00;3.10;;;;;;;18.20;48.85;98807.94;5015869;28;20446;-63
2022/12/14 03:49:28;;;;;;;5.07;3.17;;;;;;;18.18;49.04;98806.72;5031148;28;20482;-63
2022/12/14 03:52:02;;;;;;;8.00;3.40;;;;;;;18.13;48.95;98807.97;5032462;28;20900;-63
2022/12/14 03:54:44;;;;;;;6.03;3.67;;;;;;;18.17;48.72;98810.81;5020760;28;21031;-63
2022/12/14 03:57:19;;;;;;;4.47;3.20;;;;;;;18.16;48.84;98807.13;5037990;28;20890;-63
2022/12/14 03:59:54;;;;;;;4.03;2.73;;;;;;;18.21;48.42;98808.75;5019963;28;20559;-64
2022/12/14 04:02:53;;;;;;;5.00;2.83;;;;;;;18.23;48.82;98815.69;5034196;28;20453;-64
2022/12/14 04:05:33;;;;;;;5.27;2.80;;;;;;;18.19;49.01;98812.00;5031720;28;20530;-64
2022/12/14 04:08:03;;;;;;;5.60;3.43;;;;;;;18.21;48.78;98792.41;5036263;28;20469;-63
2022/12/14 04:18:58;;;;;;;9.50;3.70;;;;;;;18.23;48.73;98789.97;5033763;28;20453;-63
2022/12/14 04:21:54;;;;;;;4.77;3.30;;;;;;;18.20;48.69;98793.66;5035233;28;20465;-64
2022/12/14 04:27:23;;;;;;;4.60;2.90;;;;;;;18.18;48.62;98787.53;5054790;28;20421;-63
2022/12/14 04:29:55;;;;;;;5.20;3.23;;;;;;;18.24;48.84;98794.44;5053725;28;20426;-64
2022/12/14 04:32:54;;;;;;;6.73;3.60;;;;;;;18.17;48.71;98794.47;5047590;28;20434;-64
2022/12/14 04:35:23;;;;;;;5.43;3.10;;;;;;;18.17;48.96;98783.03;5001624;28;20837;-64
2022/12/14 04:37:51;;;;;;;4.77;3.07;;;;;;;18.18;48.89;98773.25;5037093;28;20430;-64
2022/12/14 04:40:22;;;;;;;5.93;3.60;;;;;;;18.16;48.72;98764.28;5040001;28;20432;-64
2022/12/14 04:42:57;;;;;;;4.80;3.40;;;;;;;18.18;48.85;98784.69;5037029;28;20910;-64
2022/12/14 04:45:32;;;;;;;4.50;2.70;;;;;;;18.21;48.92;98778.13;5036523;28;20463;-63
2022/12/14 04:48:44;;;;;;;4.40;2.77;;;;;;;18.21;49.24;98778.13;5044237;28;20438;-64
2022/12/14 04:51:17;;;;;;;6.40;3.77;;;;;;;18.20;48.70;98782.22;5020565;28;20431;-64
2022/12/14 04:53:42;;;;;;;3.83;2.67;;;;;;;18.18;48.71;98778.97;5040568;28;20434;-63
2022/12/14 04:56:08;;;;;;;3.80;2.77;;;;;;;18.20;48.74;98776.50;5036401;28;20454;-64
2022/12/14 04:58:33;;;;;;;4.20;2.80;;;;;;;18.20;49.01;98770.78;5057607;28;20258;-63
2022/12/14 05:01:23;;;;;;;6.23;3.60;;;;;;;18.16;48.71;98770.00;5055461;28;20171;-63
2022/12/14 05:04:08;;;;;;;4.23;2.87;;;;;;;18.20;48.83;98773.66;5071550;28;20721;-64
2022/12/14 05:06:42;;;;;;;5.60;2.90;;;;;;;18.16;48.83;98775.69;5056570;28;20528;-64
2022/12/14 05:09:28;;;;;;;4.17;2.97;;;;;;;18.21;48.60;98772.41;5051593;28;20426;-64
2022/12/14 05:12:26;;;;;;;4.80;3.10;;;;;;;18.20;48.42;98770.78;5041002;28;20578;-64
2022/12/14 05:14:57;;;;;;;4.93;2.90;;;;;;;18.17;48.92;98762.25;5039047;28;20453;-64
2022/12/14 05:17:22;;;;;;;5.20;2.87;;;;;;;18.20;48.74;98752.81;5056152;28;20438;-63
2022/12/14 05:19:48;;;;;;;4.47;3.03;;;;;;;18.20;48.83;98752.81;5053630;28;20410;-63
2022/12/14 05:22:14;;;;;;;5.80;3.07;;;;;;;18.23;48.93;98757.72;5053925;28;20168;-64
2022/12/14 05:24:39;;;;;;;4.00;2.63;;;;;;;18.22;48.59;98753.25;5056030;28;20411;-64
2022/12/14 05:27:05;;;;;;;4.23;2.50;;;;;;;18.28;48.51;98748.72;5053327;28;20164;-63
2022/12/14 05:29:30;;;;;;;4.00;2.57;;;;;;;18.24;49.04;98743.03;5060575;28;20183;-63
2022/12/14 05:31:56;;;;;;;4.47;2.87;;;;;;;18.24;48.41;98736.50;5062998;28;20653;-63
2022/12/14 05:34:21;;;;;;;6.00;3.57;;;;;;;18.19;48.91;98734.91;5073816;28;20202;-63
2022/12/14 05:36:47;;;;;;;4.23;2.83;;;;;;;18.23;48.51;98741.41;5069800;28;20190;-63
2022/12/14 05:39:13;;;;;;;4.20;3.13;;;;;;;18.21;48.99;98743.84;5064016;28;20180;-64
2022/12/14 05:41:38;;;;;;;3.90;2.80;;;;;;;18.19;48.72;98740.59;5053412;28;20172;-63
2022/12/14 05:44:04;;;;;;;5.13;2.93;;;;;;;18.22;48.87;98742.63;5053070;28;20437;-64
2022/12/14 05:46:29;;;;;;;4.70;2.67;;;;;;;18.20;48.80;98739.38;5064427;28;20175;-64
2022/12/14 05:48:54;;;;;;;4.57;3.10;;;;;;;18.29;48.73;98744.63;5053321;28;20191;-64
2022/12/14 05:51:20;;;;;;;6.33;3.40;;;;;;;18.20;48.44;98742.22;5054064;28;20172;-64
2022/12/14 05:53:45;;;;;;;4.90;3.23;;;;;;;18.21;48.91;98729.56;5047891;28;20243;-64
2022/12/14 05:56:11;;;;;;;5.27;2.60;;;;;;;18.21;48.80;98731.63;5072678;28;20190;-64
2022/12/14 05:58:36;;;;;;;7.30;3.23;;;;;;;18.16;48.93;98730.00;5069263;28;20258;-64
2022/12/14 06:01:07;;;;;;;3.80;2.70;;;;;;;18.18;48.53;98727.56;5067042;28;20211;-64
2022/12/14 06:03:32;;;;;;;4.03;2.53;;;;;;;18.22;48.75;98730.41;5059654;28;20175;-64
2022/12/14 06:06:05;;;;;;;6.27;3.53;;;;;;;18.20;48.54;98713.66;5054550;28;20425;-64
2022/12/14 06:08:39;;;;;;;5.57;2.83;;;;;;;18.22;48.95;98711.19;5052023;28;20189;-64
2022/12/14 06:11:09;;;;;;;5.67;3.30;;;;;;;18.22;48.83;98694.06;5071988;28;20417;-64
2022/12/14 06:13:35;;;;;;;5.07;3.20;;;;;;;18.16;48.56;98684.31;5063886;28;20430;-64
2022/12/14 06:16:12;;;;;;;3.97;2.67;;;;;;;18.18;48.71;98690.44;5033393;28;20442;-64
2022/12/14 06:18:45;;;;;;;4.57;2.63;;;;;;;18.21;48.65;98688.78;5070163;28;20431;-64
2022/12/14 06:21:12;;;;;;;4.27;3.20;;;;;;;18.20;48.90;98673.69;5071453;28;20429;-64
2022/12/14 06:23:37;;;;;;;4.60;2.93;;;;;;;18.17;48.75;98668.00;5072185;28;20417;-64
2022/12/14 06:26:03;;;;;;;7.90;3.60;;;;;;;18.20;48.90;98670.00;5072410;28;20752;-64
2022/12/14 06:28:28;;;;;;;4.20;2.50;;;;;;;18.22;48.51;98671.19;5055109;28;20267;-64
2022/12/14 06:30:54;;;;;;;3.77;2.90;;;;;;;18.18;48.62;98675.31;5051879;28;20476;-64
2022/12/14 06:33:19;;;;;;;5.00;3.30;;;;;;;18.22;48.71;98665.50;5055135;28;20179;-64
2022/12/14 06:35:45;;;;;;;5.57;3.10;;;;;;;18.24;48.81;98667.94;5052071;28;20250;-64
2022/12/14 06:38:11;;;;;;;5.10;3.27;;;;;;;18.27;48.46;98670.75;5064822;28;20224;-64
2022/12/14 06:40:36;;;;;;;4.73;3.40;;;;;;;18.03;47.13;98657.47;5063890;28;20175;-65
2022/12/14 06:43:02;;;;;;;10.60;7.40;;;;;;;17.84;47.66;98649.44;5076564;28;20436;-64
2022/12/14 06:45:30;;;;;;;18.77;12.97;;;;;;;17.89;44.88;98654.69;5071783;28;20167;-64
2022/12/14 06:47:57;;;;;;;24.53;16.67;;;;;;;18.28;44.01;98663.84;5080314;28;20183;-65
2022/12/14 06:50:22;;;;;;;18.73;13.13;;;;;;;18.45;42.90;98656.38;5073569;28;20487;-64
2022/12/14 06:52:48;;;;;;;19.90;13.50;;;;;;;18.49;43.57;98649.41;5071567;28;20441;-65
2022/12/14 06:55:14;;;;;;;19.40;12.93;;;;;;;18.41;44.80;98650.69;5056084;28;20207;-64
2022/12/14 06:57:40;;;;;;;17.63;11.70;;;;;;;18.63;44.54;98652.16;5065456;28;20589;-64
2022/12/14 07:00:07;;;;;;;15.40;9.83;;;;;;;18.62;45.28;98647.66;5066480;28;20700;-63
2022/12/14 07:02:32;;;;;;;17.43;10.63;;;;;;;18.71;45.86;98645.13;5051588;28;20480;-62
2022/12/14 07:04:58;;;;;;;13.87;9.37;;;;;;;18.75;46.10;98654.50;5070503;28;20430;-63
2022/12/14 07:07:23;;;;;;;13.30;8.40;;;;;;;18.77;46.40;98642.66;5056947;28;20194;-62
2022/12/14 07:09:49;;;;;;;17.90;7.80;;;;;;;18.71;47.02;98642.28;5062127;28;20179;-62
2022/12/14 07:12:14;;;;;;;12.73;8.07;;;;;;;19.06;47.00;98641.94;5066928;28;20650;-63
2022/12/14 07:14:40;;;;;;;13.50;8.60;;;;;;;19.07;47.21;98640.69;5084402;28;20259;-62
2022/12/14 07:17:05;;;;;;;16.83;7.60;;;;;;;18.91;47.44;98634.72;5074511;28;20191;-62
2022/12/14 07:19:30;;;;;;;12.17;6.57;;;;;;;18.83;48.19;98630.34;5052324;28;20191;-62
2022/12/14 07:21:56;;;;;;;10.57;7.37;;;;;;;18.72;49.81;98635.31;5074887;28;20189;-63
2022/12/14 07:24:21;;;;;;;11.67;7.10;;;;;;;18.86;50.03;98631.53;5071638;28;20182;-63
2022/12/14 07:26:47;;;;;;;8.90;6.63;;;;;;;18.83;49.97;98630.34;5073612;28;20185;-63
2022/12/14 07:29:13;;;;;;;8.97;6.20;;;;;;;18.83;50.15;98629.50;5078877;28;20178;-62
2022/12/14 07:31:39;;;;;;;10.40;6.27;;;;;;;18.78;49.57;98636.50;5065922;28;20213;-62
2022/12/14 07:34:04;;;;;;;9.37;5.47;;;;;;;18.67;49.65;98638.63;5051311;28;20421;-62
2022/12/14 07:36:31;;;;;;;8.90;5.43;;;;;;;18.68;49.08;98639.44;5059761;28;20516;-62
2022/12/14 07:38:57;;;;;;;9.40;6.00;;;;;;;18.51;48.96;98646.16;5071507;28;20259;-63
2022/12/14 07:41:24;;;;;;;14.20;8.50;;;;;;;18.32;47.21;98647.50;5066444;28;20502;-63
2022/12/14 07:43:50;;;;;;;12.77;8.27;;;;;;;18.29;45.04;98648.31;5072760;28;20176;-63
2022/12/14 07:46:17;;;;;;;12.10;8.07;;;;;;;18.28;44.80;98649.56;5067334;28;20444;-63
2022/12/14 07:48:46;;;;;;;10.83;7.43;;;;;;;18.24;44.28;98648.75;5057320;28;20199;-63
2022/12/14 07:51:12;;;;;;;15.60;7.20;;;;;;;18.24;43.75;98633.66;5090327;28;20900;-62
2022/12/14 07:53:38;;;;;;;18.27;6.90;;;;;;;18.25;44.71;98647.53;5074887;28;20545;-62
2022/12/14 07:56:06;;;;;;;12.93;7.17;;;;;;;18.26;44.05;98643.44;5072151;28;20532;-62
2022/12/14 07:58:32;;;;;;;10.90;6.73;;;;;;;18.24;43.92;98640.19;5072850;28;20706;-62
2022/12/14 08:01:20;;;;;;;13.83;6.50;;;;;;;18.19;43.81;98642.66;5073835;28;20885;-62
2022/12/14 08:03:51;;;;;;;12.20;7.10;;;;;;;18.14;43.23;98634.53;5075705;28;20440;-62
2022/12/14 08:06:19;;;;;;;9.03;5.90;;;;;;;18.13;43.25;98642.31;5076789;28;20473;-62
2022/12/14 08:08:44;;;;;;;10.10;5.50;;;;;;;18.09;44.08;98635.81;5052501;28;20965;-62
2022/12/14 08:11:10;;;;;;;16.33;6.53;;;;;;;18.15;45.74;98624.75;5063213;28;20417;-62
2022/12/14 08:13:37;;;;;;;12.83;6.70;;;;;;;18.22;45.85;98614.06;5080846;28;20568;-62
2022/12/14 08:16:08;;;;;;;12.00;5.80;;;;;;;18.21;45.98;98621.03;5073084;28;20211;-63
2022/12/14 08:18:33;;;;;;;12.30;5.53;;;;;;;18.24;46.09;98625.91;5074105;28;21020;-62
2022/12/14 08:21:01;;;;;;;13.33;5.93;;;;;;;18.33;46.01;98629.16;5069681;28;20524;-62
2022/12/14 08:23:27;;;;;;;13.20;5.40;;;;;;;18.40;45.95;98623.38;5062846;28;20225;-63
2022/12/14 08:25:55;;;;;;;10.20;5.10;;;;;;;18.40;45.98;98626.22;5074666;28;20924;-63
2022/12/14 08:28:21;;;;;;;10.90;5.40;;;;;;;18.38;46.16;98622.16;5058824;28;20223;-63
2022/12/14 08:30:46;;;;;;;8.77;4.90;;;;;;;18.41;45.97;98621.31;5055104;28;20429;-63
2022/12/14 08:33:11;;;;;;;10.53;5.50;;;;;;;18.43;46.04;98605.38;5057617;28;20195;-63
2022/12/14 08:35:37;;;;;;;6.80;4.97;;;;;;;18.43;46.14;98608.25;5068272;28;20203;-63
2022/12/14 08:38:02;;;;;;;8.07;4.70;;;;;;;18.43;46.21;98601.72;5074091;28;20171;-62
2022/12/14 08:40:28;;;;;;;7.50;3.90;;;;;;;18.42;46.01;98600.88;5071636;28;20171;-62
2022/12/14 08:42:53;;;;;;;11.83;5.37;;;;;;;18.40;46.48;98603.34;5039146;28;20187;-62
2022/12/14 08:45:19;;;;;;;13.43;4.97;;;;;;;18.41;46.53;98610.69;5036703;28;20164;-62
2022/12/14 08:47:45;;;;;;;13.53;4.17;;;;;;;18.44;46.40;98601.28;5067555;28;20272;-63
2022/12/14 08:50:11;;;;;;;11.90;4.73;;;;;;;18.41;46.56;98595.63;5070898;28;20179;-63
2022/12/14 08:52:37;;;;;;;7.90;4.43;;;;;;;18.39;46.66;98598.06;5074528;28;20457;-63
2022/12/14 08:55:03;;;;;;;8.03;4.03;;;;;;;18.37;46.80;98589.13;5074152;28;20209;-63
2022/12/14 08:57:29;;;;;;;6.90;4.10;;;;;;;18.38;46.83;98593.59;5070614;28;20437;-63
2022/12/14 08:59:54;;;;;;;12.40;4.60;;;;;;;18.35;47.00;98595.25;5074341;28;20609;-62
2022/12/14 09:02:20;;;;;;;8.33;4.27;;;;;;;18.38;46.95;98596.44;5070416;28;20268;-63
2022/12/14 09:04:45;;;;;;;7.13;4.00;;;;;;;18.38;46.93;98605.84;5074347;28;20191;-63
2022/12/14 09:07:10;;;;;;;10.13;4.23;;;;;;;18.42;46.94;98618.03;5067642;28;20187;-63
2022/12/14 09:09:36;;;;;;;6.87;4.77;;;;;;;18.43;46.96;98625.38;5053854;28;20183;-62
2022/12/14 09:12:05;;;;;;;8.93;4.60;;;;;;;18.38;47.19;98636.44;5053742;28;20180;-63
2022/12/14 09:14:32;;;;;;;7.80;4.00;;;;;;;18.34;47.58;98621.38;5056304;28;20256;-63
2022/12/14 09:16:57;;;;;;;10.60;3.90;;;;;;;18.30;47.23;98623.41;5066060;28;20471;-63
2022/12/14 09:19:23;;;;;;;6.70;4.47;;;;;;;18.35;47.12;98626.66;5074001;28;20414;-63
2022/12/14 09:21:48;;;;;;;7.10;4.30;;;;;;;18.34;47.68;98630.75;5069781;28;20187;-63
2022/12/14 09:24:14;;;;;;;7.17;4.23;;;;;;;18.35;47.68;98618.09;5073828;28;20195;-63
2022/12/14 09:26:39;;;;;;;15.80;4.37;;;;;;;18.37;47.47;98629.09;5072627;28;20232;-63
2022/12/14 09:29:05;;;;;;;9.07;4.17;;;;;;;18.33;47.62;98643.44;5069797;28;20199;-63
2022/12/14 09:31:30;;;;;;;7.60;4.10;;;;;;;18.36;47.64;98636.84;5072796;28;20498;-63
2022/12/14 09:33:55;;;;;;;5.07;3.60;;;;;;;18.35;47.86;98635.25;5068687;28;20175;-63
2022/12/14 09:36:24;;;;;;;6.47;4.50;;;;;;;18.29;47.52;98631.19;5052670;28;20188;-63
2022/12/14 09:38:50;;;;;;;7.40;4.30;;;;;;;18.28;47.58;98628.72;5053294;28;20201;-62
2022/12/14 09:41:34;;;;;;;8.10;4.30;;;;;;;18.30;47.56;98632.81;5066781;28;20499;-63
2022/12/14 09:44:29;;;;;;;5.70;3.27;;;;;;;18.27;47.71;98618.53;5073379;28;20173;-63
2022/12/14 09:47:13;;;;;;;8.03;3.97;;;;;;;18.26;47.78;98616.94;5060366;28;20529;-63
2022/12/14 09:49:55;;;;;;;5.00;3.70;;;;;;;18.26;47.87;98626.28;5052220;28;20445;-63
2022/12/14 09:52:34;;;;;;;7.20;3.47;;;;;;;18.23;47.97;98618.59;5037165;28;20422;-62
2022/12/14 09:55:02;;;;;;;5.50;3.47;;;;;;;18.31;47.69;98628.69;5037506;28;20462;-62
2022/12/14 09:57:35;;;;;;;5.97;3.77;;;;;;;18.32;48.02;98636.06;5034327;28;20497;-62
2022/12/14 10:00:00;;;;;;;5.63;3.77;;;;;;;18.31;47.90;98630.78;5034073;28;20826;-63
2022/12/14 10:02:36;;;;;;;7.87;4.03;;;;;;;18.36;47.97;98639.72;5053920;28;20545;-63
2022/12/14 10:05:28;;;;;;;5.90;3.53;;;;;;;18.30;47.67;98644.22;5068899;28;20389;-63
2022/12/14 10:08:14;;;;;;;6.20;3.23;;;;;;;18.30;48.01;98632.81;5057474;28;20473;-63
2022/12/14 10:11:25;;;;;;;9.10;4.13;;;;;;;18.38;47.55;98637.28;5064240;28;20429;-62
2022/12/14 10:14:04;;;;;;;6.70;4.10;;;;;;;18.34;47.42;98636.47;5068129;28;20448;-63
2022/12/14 10:16:51;;;;;;;5.50;3.90;;;;;;;18.36;47.99;98639.72;5037152;28;20433;-63
2022/12/14 10:19:43;;;;;;;5.07;3.53;;;;;;;18.32;48.34;98636.06;5051886;28;20410;-63
2022/12/14 10:22:14;;;;;;;5.47;3.33;;;;;;;18.34;48.12;98633.63;5037161;28;20792;-62
2022/12/14 10:24:45;;;;;;;4.40;3.03;;;;;;;18.28;47.82;98629.56;5052001;28;20813;-63
2022/12/14 10:27:16;;;;;;;6.13;4.00;;;;;;;18.25;48.19;98638.97;5071877;28;20425;-62
2022/12/14 10:29:47;;;;;;;4.67;3.20;;;;;;;18.35;47.90;98643.81;5055393;28;20414;-63
2022/12/14 10:32:38;;;;;;;5.73;3.40;;;;;;;18.33;48.02;98642.59;5042112;28;20462;-63
2022/12/14 10:35:17;;;;;;;6.20;4.30;;;;;;;18.32;47.84;98638.09;5049950;28;20544;-63
2022/12/14 10:37:43;;;;;;;6.13;3.30;;;;;;;18.34;47.90;98630.75;5054861;28;20549;-63
2022/12/14 10:40:15;;;;;;;6.00;3.10;;;;;;;18.29;48.18;98642.59;5051295;28;20410;-63
2022/12/14 10:43:05;;;;;;;5.20;3.30;;;;;;;18.30;47.97;98644.22;5065738;28;20477;-63
2022/12/14 10:45:38;;;;;;;6.07;3.73;;;;;;;18.34;48.21;98638.50;5065056;28;20422;-63
2022/12/14 10:48:24;;;;;;;5.60;3.40;;;;;;;18.35;48.22;98640.94;5071163;28;20436;-63
2022/12/14 10:51:09;;;;;;;4.93;3.73;;;;;;;18.33;48.22;98628.31;5059462;28;20753;-63
2022/12/14 10:54:14;;;;;;;4.80;3.20;;;;;;;18.28;48.24;98631.59;5060765;28;20516;-63
2022/12/14 10:56:40;;;;;;;5.33;3.30;;;;;;;18.29;48.06;98630.34;5050608;28;20456;-63
2022/12/14 10:59:19;;;;;;;4.10;3.30;;;;;;;18.26;48.04;98623.44;5072108;28;20510;-63
2022/12/14 11:01:45;;;;;;;5.00;3.40;;;;;;;18.28;48.26;98629.56;5070010;28;20417;-62
2022/12/14 11:04:31;;;;;;;5.90;3.47;;;;;;;18.32;48.10;98630.34;5070936;28;20425;-63
2022/12/14 11:06:57;;;;;;;5.60;3.60;;;;;;;18.37;48.24;98634.81;5053736;28;20433;-63
2022/12/14 11:09:23;;;;;;;6.40;4.37;;;;;;;18.33;47.98;98634.03;5056272;28;20473;-63
2022/12/14 11:11:57;;;;;;;4.57;3.30;;;;;;;18.34;47.86;98633.63;5049614;28;20522;-63
2022/12/14 11:14:22;;;;;;;5.50;3.73;;;;;;;18.34;47.87;98627.91;5067919;28;20236;-63
2022/12/14 11:16:48;;;;;;;4.77;3.53;;;;;;;18.30;48.02;98624.22;5066924;28;20445;-63
2022/12/14 11:19:18;;;;;;;5.30;3.40;;;;;;;18.30;48.14;98631.97;5050231;28;20187;-63
2022/12/14 11:21:43;;;;;;;5.10;3.20;;;;;;;18.30;48.04;98641.38;5051526;28;20210;-63
2022/12/14 11:24:23;;;;;;;4.50;3.40;;;;;;;18.34;48.01;98641.38;5054256;28;20445;-63
2022/12/14 11:26:48;;;;;;;4.73;3.20;;;;;;;18.29;48.15;98644.63;5067495;28;20186;-63
2022/12/14 11:29:20;;;;;;;4.80;3.50;;;;;;;18.35;48.14;98646.66;5036251;28;20456;-63
2022/12/14 11:31:46;;;;;;;4.53;3.10;;;;;;;18.32;48.10;98644.63;5048492;28;20168;-63
2022/12/14 11:34:39;;;;;;;5.30;3.60;;;;;;;18.33;48.07;98643.44;5041981;28;20417;-63
2022/12/14 11:37:21;;;;;;;4.57;3.00;;;;;;;18.35;48.50;98637.28;5070328;28;20409;-63
2022/12/14 11:39:52;;;;;;;4.67;3.20;;;;;;;18.32;48.33;98630.34;5070896;28;20404;-62
2022/12/14 11:42:18;;;;;;;7.73;3.77;;;;;;;18.32;48.31;98632.38;5039021;28;20442;-63
2022/12/14 11:44:43;;;;;;;4.83;3.00;;;;;;;18.27;48.23;98633.63;5052531;28;20421;-62
2022/12/14 11:47:19;;;;;;;4.30;3.20;;;;;;;18.35;48.28;98640.13;5051558;28;20788;-63
2022/12/14 11:49:46;;;;;;;5.20;3.60;;;;;;;18.31;48.46;98643.00;5044226;28;20590;-63
2022/12/14 11:52:22;;;;;;;5.27;3.50;;;;;;;18.29;48.36;98641.78;5052107;28;20460;-63
2022/12/14 11:55:14;;;;;;;7.10;3.40;;;;;;;18.30;48.24;98641.38;5070505;28;20465;-63
2022/12/14 11:57:50;;;;;;;4.00;3.20;;;;;;;18.28;48.37;98641.00;5052051;28;20409;-63
2022/12/14 12:00:18;;;;;;;4.60;3.07;;;;;;;18.29;48.23;98645.47;5044877;28;20985;-63